Time;durP1;ratioP1;P1;durP2;ratioP2;P2;SDS_P1;SDS_P2;PMS_P1;PMS_P2;Temp;Humidity;BMP_temperature;BMP_pressure;BME280_temperature;BME280_humidity;BME280_pressure;Samples;Min_cycle;Max_cycle;Signal;HPM_P1;HPM_P2
2023/09/24 00:02:12;;;;;;;1.13;1.02;;;11.80;99.90;;;;;;5035720;28;20073;-65
2023/09/24 00:04:39;;;;;;;1.33;1.00;;;11.80;99.90;;;;;;5035658;28;20512;-65
2023/09/24 00:07:05;;;;;;;1.30;0.85;;;11.90;99.90;;;;;;5035568;28;20440;-65
2023/09/24 00:09:31;;;;;;;2.45;1.25;;;11.90;99.90;;;;;;5035541;28;20454;-65
2023/09/24 00:11:58;;;;;;;1.40;1.13;;;11.90;99.90;;;;;;5035518;28;20046;-65
2023/09/24 00:14:26;;;;;;;0.90;0.90;;;11.90;99.90;;;;;;5035476;28;20037;-65
2023/09/24 00:16:52;;;;;;;0.98;0.80;;;12.00;99.90;;;;;;5035049;28;20137;-65
2023/09/24 00:19:17;;;;;;;0.80;0.80;;;12.00;99.90;;;;;;5035270;28;20453;-66
2023/09/24 00:21:43;;;;;;;1.58;1.10;;;12.00;99.90;;;;;;5035237;28;20076;-65
2023/09/24 00:24:10;;;;;;;0.82;0.80;;;12.00;99.90;;;;;;5034862;28;20037;-65
2023/09/24 00:26:35;;;;;;;0.68;0.68;;;11.90;99.90;;;;;;5035215;28;20386;-65
2023/09/24 00:29:02;;;;;;;0.60;0.60;;;12.00;99.90;;;;;;5035229;28;20052;-71
2023/09/24 00:31:27;;;;;;;0.82;0.80;;;12.00;99.90;;;;;;5017082;28;20049;-71
2023/09/24 00:33:53;;;;;;;1.15;0.82;;;11.90;99.90;;;;;;5034632;28;20033;-70
2023/09/24 00:36:19;;;;;;;0.63;0.60;;;11.90;99.90;;;;;;5034879;28;20120;-70
2023/09/24 00:38:45;;;;;;;1.02;0.82;;;11.80;99.90;;;;;;5034971;28;20491;-70
2023/09/24 00:41:10;;;;;;;0.70;0.70;;;11.80;99.90;;;;;;5034708;28;20029;-71
2023/09/24 00:43:36;;;;;;;0.90;0.90;;;11.80;99.90;;;;;;5017109;28;20091;-71
2023/09/24 00:46:09;;;;;;;1.00;0.88;;;11.80;99.90;;;;;;5016801;28;20100;-71
2023/09/24 00:48:37;;;;;;;0.70;0.70;;;11.90;99.90;;;;;;5017050;28;20103;-71
2023/09/24 00:51:11;;;;;;;0.57;0.57;;;11.80;99.90;;;;;;5033714;28;20041;-70
2023/09/24 00:53:37;;;;;;;1.00;0.90;;;11.70;99.90;;;;;;5034697;28;20095;-71
2023/09/24 00:56:04;;;;;;;0.95;0.70;;;11.70;99.90;;;;;;5034235;28;20049;-71
2023/09/24 00:58:31;;;;;;;1.25;0.73;;;11.80;99.90;;;;;;5034583;28;20116;-70
2023/09/24 01:00:59;;;;;;;0.75;0.75;;;11.70;99.90;;;;;;5034555;28;20116;-71
2023/09/24 01:03:28;;;;;;;0.60;0.60;;;11.70;99.90;;;;;;5016690;28;20080;-70
2023/09/24 01:05:54;;;;;;;0.88;0.80;;;11.80;99.90;;;;;;5016666;28;20061;-71
2023/09/24 01:08:22;;;;;;;0.73;0.73;;;11.70;99.90;;;;;;5016389;28;20091;-70
2023/09/24 01:10:48;;;;;;;0.70;0.70;;;12.00;99.90;;;;;;5016651;28;20084;-72
2023/09/24 01:13:15;;;;;;;0.68;0.68;;;11.70;99.90;;;;;;5034311;28;20073;-70
2023/09/24 01:15:44;;;;;;;0.73;0.73;;;11.70;99.90;;;;;;5033922;28;20050;-70
2023/09/24 01:18:10;;;;;;;0.60;0.60;;;12.00;99.90;;;;;;5033885;28;20104;-70
2023/09/24 01:20:36;;;;;;;1.10;0.85;;;11.70;99.90;;;;;;5033827;28;20049;-71
2023/09/24 01:23:03;;;;;;;0.77;0.73;;;11.70;99.90;;;;;;5033766;28;20545;-70
2023/09/24 01:25:34;;;;;;;0.85;0.60;;;11.70;99.90;;;;;;5016117;28;20116;-70
2023/09/24 01:28:02;;;;;;;0.70;0.70;;;11.70;99.90;;;;;;5016342;28;20049;-69
2023/09/24 01:30:28;;;;;;;0.70;0.70;;;11.70;99.90;;;;;;5033706;28;20045;-70
2023/09/24 01:32:54;;;;;;;0.60;0.60;;;11.70;99.90;;;;;;5015928;28;20386;-70
2023/09/24 01:35:27;;;;;;;0.52;0.52;;;11.70;99.90;;;;;;5033599;28;20044;-70
2023/09/24 01:38:05;;;;;;;1.30;0.88;;;11.80;99.90;;;;;;4999563;28;20370;-70
2023/09/24 01:40:33;;;;;;;1.13;0.73;;;11.80;99.90;;;;;;5015885;28;20405;-64
2023/09/24 01:43:04;;;;;;;0.70;0.70;;;11.80;99.90;;;;;;5033670;28;20397;-64
2023/09/24 01:45:30;;;;;;;2.15;1.27;;;11.80;99.90;;;;;;5033846;28;20079;-64
2023/09/24 01:47:56;;;;;;;0.93;0.88;;;11.80;99.90;;;;;;5033782;28;20069;-64
2023/09/24 01:50:27;;;;;;;1.10;0.80;;;11.80;99.90;;;;;;5015772;28;20128;-70
2023/09/24 01:52:53;;;;;;;0.70;0.70;;;11.80;99.90;;;;;;5033582;28;20095;-69
2023/09/24 01:55:19;;;;;;;1.05;0.90;;;11.80;99.90;;;;;;5033492;28;20080;-69
2023/09/24 01:57:45;;;;;;;1.20;0.90;;;11.80;99.90;;;;;;5033502;28;20064;-70
2023/09/24 02:00:12;;;;;;;0.80;0.80;;;11.80;99.90;;;;;;5015546;28;20037;-70
2023/09/24 02:02:42;;;;;;;0.73;0.73;;;11.70;99.90;;;;;;4998197;28;20037;-70
2023/09/24 02:05:10;;;;;;;0.70;0.70;;;11.90;99.90;;;;;;4999284;28;20080;-70
2023/09/24 02:07:37;;;;;;;1.10;1.00;;;11.70;99.90;;;;;;5015572;28;20501;-70
2023/09/24 02:10:05;;;;;;;0.80;0.77;;;11.70;99.90;;;;;;5015599;28;20033;-70
2023/09/24 02:12:38;;;;;;;0.98;0.82;;;11.70;99.90;;;;;;5033063;28;20394;-70
2023/09/24 02:15:13;;;;;;;0.80;0.80;;;11.60;99.90;;;;;;5015327;28;20428;-70
2023/09/24 02:17:39;;;;;;;0.80;0.80;;;11.50;99.90;;;;;;5032865;28;20561;-70
2023/09/24 02:20:32;;;;;;;0.70;0.70;;;11.60;99.90;;;;;;5033086;28;20033;-70
2023/09/24 02:22:57;;;;;;;;;;;11.50;99.90;;;;;;5032665;28;20084;-70
2023/09/24 02:25:25;;;;;;;0.70;0.70;;;11.60;99.90;;;;;;5015110;28;19917;-71
2023/09/24 02:27:51;;;;;;;0.90;0.70;;;11.50;99.90;;;;;;5032905;28;20148;-70
2023/09/24 02:30:20;;;;;;;0.70;0.70;;;12.40;99.90;;;;;;5032844;28;20552;-70
2023/09/24 02:32:47;;;;;;;0.80;0.80;;;11.50;99.90;;;;;;5015237;28;20053;-70
2023/09/24 02:35:13;;;;;;;1.35;1.00;;;11.50;99.90;;;;;;5014938;28;20076;-69
2023/09/24 02:37:45;;;;;;;0.85;0.73;;;11.50;99.90;;;;;;5015074;28;20103;-70
2023/09/24 02:40:16;;;;;;;1.13;0.77;;;11.50;99.90;;;;;;5033020;28;20347;-70
2023/09/24 02:42:45;;;;;;;0.90;0.90;;;11.90;99.90;;;;;;5015006;28;20440;-70
2023/09/24 02:45:11;;;;;;;1.02;0.90;;;11.50;99.90;;;;;;5014899;28;20121;-70
2023/09/24 02:47:37;;;;;;;1.15;1.05;;;11.50;99.90;;;;;;5015302;28;20064;-70
2023/09/24 02:50:08;;;;;;;1.00;1.00;;;11.50;99.90;;;;;;4998649;28;20045;-64
2023/09/24 02:52:35;;;;;;;1.17;0.98;;;11.50;99.90;;;;;;5032844;28;20117;-64
2023/09/24 02:55:00;;;;;;;1.08;0.90;;;11.50;99.90;;;;;;5014727;28;20037;-64
2023/09/24 02:57:27;;;;;;;0.95;0.90;;;11.50;99.90;;;;;;4998468;28;20050;-64
2023/09/24 02:59:52;;;;;;;1.10;1.00;;;11.50;99.90;;;;;;5032825;28;20064;-69
2023/09/24 03:02:18;;;;;;;1.35;0.95;;;11.40;99.90;;;;;;5033042;28;20109;-70
2023/09/24 03:04:43;;;;;;;1.10;1.00;;;11.40;99.90;;;;;;5014818;28;20488;-70
2023/09/24 03:07:10;;;;;;;0.77;0.77;;;11.40;99.90;;;;;;5014991;28;20374;-70
2023/09/24 03:09:35;;;;;;;1.05;0.95;;;11.40;99.90;;;;;;5014605;28;20054;-70
2023/09/24 03:12:01;;;;;;;1.23;1.13;;;11.40;99.90;;;;;;5014659;28;20053;-70
2023/09/24 03:14:27;;;;;;;1.13;1.05;;;11.40;99.90;;;;;;5017672;28;20077;-70
2023/09/24 03:16:53;;;;;;;1.40;1.30;;;11.40;99.90;;;;;;5036111;28;20497;-69
2023/09/24 03:19:19;;;;;;;2.05;1.10;;;11.30;99.90;;;;;;5036186;28;20053;-72
2023/09/24 03:21:44;;;;;;;1.15;1.10;;;11.40;99.90;;;;;;5036180;28;20156;-71
2023/09/24 03:24:11;;;;;;;1.20;1.10;;;11.40;99.90;;;;;;5036406;28;20034;-71
2023/09/24 03:26:37;;;;;;;1.25;1.15;;;11.30;99.90;;;;;;5036361;28;20397;-71
2023/09/24 03:29:03;;;;;;;1.50;1.30;;;11.30;99.90;;;;;;5035945;28;20048;-71
2023/09/24 03:31:29;;;;;;;1.30;1.20;;;11.30;99.90;;;;;;5018218;28;20041;-70
2023/09/24 03:33:54;;;;;;;1.38;1.25;;;11.30;99.90;;;;;;5035761;28;20129;-70
2023/09/24 03:36:20;;;;;;;1.30;1.20;;;11.20;99.90;;;;;;5018226;28;20088;-70
2023/09/24 03:38:46;;;;;;;1.48;1.38;;;11.20;99.90;;;;;;5036034;28;20048;-70
2023/09/24 03:41:12;;;;;;;1.77;1.40;;;11.20;99.90;;;;;;5017982;28;20124;-70
2023/09/24 03:43:37;;;;;;;1.15;1.10;;;11.20;99.90;;;;;;5035952;28;20125;-71
2023/09/24 03:46:03;;;;;;;1.33;1.23;;;11.20;99.90;;;;;;5035938;28;20052;-70
2023/09/24 03:48:28;;;;;;;1.20;1.10;;;11.20;99.90;;;;;;5035609;28;20045;-71
2023/09/24 03:50:54;;;;;;;1.20;1.10;;;11.20;99.90;;;;;;5018086;28;20038;-70
2023/09/24 03:53:19;;;;;;;1.52;1.42;;;11.20;99.90;;;;;;5017801;28;20041;-70
2023/09/24 03:55:45;;;;;;;1.15;1.05;;;11.20;99.90;;;;;;5017661;28;20045;-69
2023/09/24 03:58:12;;;;;;;1.38;1.27;;;11.10;99.90;;;;;;5035699;28;20040;-70
2023/09/24 04:00:37;;;;;;;0.98;0.98;;;11.10;99.90;;;;;;5017730;28;20044;-63
2023/09/24 04:03:03;;;;;;;1.40;1.20;;;11.10;99.90;;;;;;5035330;28;20037;-63
2023/09/24 04:05:30;;;;;;;1.50;1.40;;;11.10;99.90;;;;;;5035576;28;20160;-64
2023/09/24 04:07:56;;;;;;;1.20;1.10;;;11.10;99.90;;;;;;5035203;28;20052;-64
2023/09/24 04:10:28;;;;;;;1.08;0.98;;;11.70;99.90;;;;;;5035662;28;20393;-62
2023/09/24 04:12:54;;;;;;;1.20;1.10;;;11.00;99.90;;;;;;5035490;28;20064;-62
2023/09/24 04:15:27;;;;;;;1.40;1.10;;;11.10;99.90;;;;;;5035288;28;20033;-62
2023/09/24 04:17:53;;;;;;;1.40;1.30;;;11.00;99.90;;;;;;5034966;28;20060;-61
2023/09/24 04:20:20;;;;;;;0.85;0.85;;;11.00;99.90;;;;;;5017504;28;20160;-62
2023/09/24 04:22:46;;;;;;;1.73;1.23;;;11.00;99.90;;;;;;5035268;28;20033;-61
2023/09/24 04:25:14;;;;;;;1.23;1.13;;;11.00;99.90;;;;;;5034008;28;20370;-61
2023/09/24 04:27:43;;;;;;;1.65;1.20;;;11.00;99.90;;;;;;5034915;28;20041;-61
2023/09/24 04:30:17;;;;;;;1.40;1.10;;;10.90;99.90;;;;;;5035073;28;20473;-61
2023/09/24 04:32:53;;;;;;;1.30;1.20;;;10.90;99.90;;;;;;5035050;28;20049;-61
2023/09/24 04:35:19;;;;;;;1.40;1.30;;;10.90;99.90;;;;;;5016934;28;20079;-61
2023/09/24 04:37:51;;;;;;;1.27;1.08;;;10.90;99.90;;;;;;5034934;28;20045;-61
2023/09/24 04:40:18;;;;;;;1.42;1.20;;;10.90;99.90;;;;;;5034547;28;20052;-61
2023/09/24 04:42:45;;;;;;;1.05;1.00;;;10.90;99.90;;;;;;5034654;28;20564;-61
2023/09/24 04:45:12;;;;;;;1.20;1.10;;;10.90;99.90;;;;;;5034787;28;20429;-61
2023/09/24 04:47:41;;;;;;;1.40;1.30;;;10.90;99.90;;;;;;5034891;28;20076;-61
2023/09/24 04:50:12;;;;;;;1.73;1.20;;;10.90;99.90;;;;;;5034712;28;20409;-61
2023/09/24 04:52:41;;;;;;;1.35;1.20;;;10.80;99.90;;;;;;5034710;28;20116;-61
2023/09/24 04:55:08;;;;;;;1.17;1.08;;;10.90;99.90;;;;;;5034391;28;20049;-61
2023/09/24 04:57:33;;;;;;;1.42;1.33;;;10.80;99.90;;;;;;5034534;28;20046;-62
2023/09/24 04:59:59;;;;;;;1.10;1.00;;;10.80;99.90;;;;;;5016790;28;20378;-61
2023/09/24 05:02:25;;;;;;;2.28;1.27;;;10.80;99.90;;;;;;5034570;28;20033;-61
2023/09/24 05:04:52;;;;;;;1.48;1.00;;;10.80;99.90;;;;;;5016511;28;20045;-61
2023/09/24 05:07:18;;;;;;;1.23;1.10;;;10.80;99.90;;;;;;5034114;28;20049;-62
2023/09/24 05:09:44;;;;;;;1.73;1.55;;;10.80;99.90;;;;;;5016596;28;20546;-61
2023/09/24 05:12:12;;;;;;;1.08;1.00;;;10.80;99.90;;;;;;5016418;28;20132;-64
2023/09/24 05:14:38;;;;;;;1.05;1.05;;;10.80;99.90;;;;;;5034348;28;20417;-64
2023/09/24 05:17:03;;;;;;;1.20;1.10;;;10.80;99.90;;;;;;5033741;28;20045;-64
2023/09/24 05:19:29;;;;;;;1.17;1.08;;;10.80;99.90;;;;;;5034262;28;20049;-64
2023/09/24 05:21:54;;;;;;;1.90;1.30;;;10.80;99.90;;;;;;5034309;28;20116;-64
2023/09/24 05:24:20;;;;;;;1.30;1.20;;;10.70;99.90;;;;;;5016159;28;20473;-64
2023/09/24 05:26:46;;;;;;;1.10;0.95;;;10.70;99.90;;;;;;5016019;28;20136;-64
2023/09/24 05:29:11;;;;;;;1.33;1.23;;;10.70;99.90;;;;;;5034046;28;20038;-64
2023/09/24 05:31:38;;;;;;;2.95;1.50;;;10.70;99.90;;;;;;5033763;28;20456;-64
2023/09/24 05:34:05;;;;;;;2.08;1.40;;;10.80;99.90;;;;;;5033667;28;20489;-64
2023/09/24 05:36:31;;;;;;;1.48;1.30;;;10.80;99.90;;;;;;5033320;28;20057;-64
2023/09/24 05:38:57;;;;;;;1.00;0.90;;;10.80;99.90;;;;;;5033809;28;20029;-64
2023/09/24 05:41:23;;;;;;;1.35;1.13;;;10.70;99.90;;;;;;5033818;28;20038;-64
2023/09/24 05:43:48;;;;;;;1.45;1.30;;;10.70;99.90;;;;;;5033515;28;20477;-64
2023/09/24 05:46:14;;;;;;;1.30;1.20;;;10.70;99.90;;;;;;5033765;28;20538;-64
2023/09/24 05:48:41;;;;;;;1.50;1.40;;;10.80;99.90;;;;;;5015725;28;20477;-64
2023/09/24 05:51:10;;;;;;;1.27;1.17;;;10.80;99.90;;;;;;5033593;28;20037;-64
2023/09/24 05:53:35;;;;;;;1.17;1.10;;;10.80;99.90;;;;;;5033300;28;20037;-64
2023/09/24 05:56:02;;;;;;;1.65;1.42;;;10.70;99.90;;;;;;5033124;28;20056;-64
2023/09/24 05:58:27;;;;;;;2.30;1.70;;;10.80;99.90;;;;;;5033530;28;20528;-64
2023/09/24 06:00:56;;;;;;;1.65;1.48;;;10.80;99.90;;;;;;5033040;28;20033;-64
2023/09/24 06:03:22;;;;;;;2.25;1.77;;;10.80;99.90;;;;;;5033158;28;20042;-64
2023/09/24 06:05:48;;;;;;;1.67;1.38;;;10.80;99.90;;;;;;5033372;28;20037;-64
2023/09/24 06:08:13;;;;;;;1.98;1.45;;;10.80;99.90;;;;;;5033280;28;20041;-64
2023/09/24 06:10:45;;;;;;;1.42;1.20;;;10.80;99.90;;;;;;5033300;28;20128;-65
2023/09/24 06:13:15;;;;;;;2.80;1.98;;;10.90;99.90;;;;;;5033406;28;20481;-70
2023/09/24 06:15:44;;;;;;;1.50;1.40;;;10.90;99.90;;;;;;5033139;28;20087;-69
2023/09/24 06:18:12;;;;;;;2.47;1.65;;;10.90;99.90;;;;;;4992356;28;20055;-69
2023/09/24 06:20:39;;;;;;;1.35;1.05;;;10.90;99.90;;;;;;4992521;28;20050;-70
2023/09/24 06:23:04;;;;;;;1.50;1.33;;;11.00;99.90;;;;;;4993679;28;20039;-69
2023/09/24 06:25:30;;;;;;;1.55;1.38;;;11.00;99.90;;;;;;4994711;28;20088;-70
2023/09/24 06:27:56;;;;;;;1.65;1.50;;;11.00;99.90;;;;;;4993806;28;20038;-69
2023/09/24 06:30:22;;;;;;;1.85;1.40;;;11.10;99.90;;;;;;4993928;28;20041;-69
2023/09/24 06:32:47;;;;;;;1.75;1.20;;;11.10;99.90;;;;;;4993884;28;20122;-70
2023/09/24 06:35:13;;;;;;;1.90;1.30;;;11.10;99.90;;;;;;4993775;28;20107;-68
2023/09/24 06:37:38;;;;;;;1.33;1.23;;;11.20;99.90;;;;;;4993687;28;20039;-70
2023/09/24 06:40:05;;;;;;;1.30;1.20;;;11.20;99.90;;;;;;4993762;28;20418;-68
2023/09/24 06:42:30;;;;;;;1.50;1.40;;;11.30;99.90;;;;;;4993802;28;20064;-70
2023/09/24 06:44:56;;;;;;;2.05;1.35;;;11.40;99.90;;;;;;4993785;28;20034;-70
2023/09/24 06:47:21;;;;;;;2.58;1.17;;;11.50;99.90;;;;;;4992381;28;20459;-69
2023/09/24 06:49:50;;;;;;;1.58;1.27;;;11.60;99.90;;;;;;4997452;28;20038;-70
2023/09/24 06:52:16;;;;;;;2.20;1.60;;;11.70;99.90;;;;;;4996493;28;20176;-69
2023/09/24 06:54:41;;;;;;;3.47;1.58;;;11.80;99.90;;;;;;4997357;28;20034;-69
2023/09/24 06:57:07;;;;;;;2.15;1.23;;;11.90;99.90;;;;;;4995962;28;20109;-69
2023/09/24 06:59:33;;;;;;;2.10;1.30;;;12.00;99.90;;;;;;4997293;28;20043;-69
2023/09/24 07:01:58;;;;;;;2.40;1.58;;;12.10;99.90;;;;;;4995941;28;20052;-69
2023/09/24 07:04:24;;;;;;;1.50;1.40;;;12.20;99.90;;;;;;4997557;28;20038;-70
2023/09/24 07:06:51;;;;;;;1.50;1.38;;;12.30;99.90;;;;;;4995925;28;20046;-69
2023/09/24 07:09:17;;;;;;;2.22;1.60;;;12.40;99.90;;;;;;4997412;28;20412;-71
2023/09/24 07:11:42;;;;;;;1.33;1.15;;;12.40;99.90;;;;;;4997522;28;20034;-72
2023/09/24 07:14:08;;;;;;;1.75;1.45;;;12.50;99.90;;;;;;4997071;28;20039;-70
2023/09/24 07:16:35;;;;;;;1.63;1.52;;;12.50;99.90;;;;;;5010430;28;20045;-71
2023/09/24 07:19:01;;;;;;;1.52;1.30;;;12.50;99.90;;;;;;5036550;28;20033;-70
2023/09/24 07:21:31;;;;;;;1.70;1.30;;;12.60;99.90;;;;;;5018678;28;20041;-70
2023/09/24 07:23:58;;;;;;;1.73;1.33;;;12.70;99.90;;;;;;5036183;28;20045;-69
2023/09/24 07:26:26;;;;;;;1.45;1.23;;;12.80;99.90;;;;;;5036525;28;20046;-71
2023/09/24 07:28:52;;;;;;;1.30;1.20;;;12.80;99.90;;;;;;5018771;28;20060;-71
2023/09/24 07:31:21;;;;;;;1.23;1.05;;;12.90;99.90;;;;;;5036330;28;20052;-71
2023/09/24 07:33:54;;;;;;;1.63;1.50;;;13.00;99.90;;;;;;5036279;28;20489;-70
2023/09/24 07:36:21;;;;;;;1.00;0.90;;;13.10;99.90;;;;;;5018427;28;20092;-69
2023/09/24 07:38:46;;;;;;;1.42;1.17;;;13.10;99.90;;;;;;5035792;28;20095;-70
2023/09/24 07:41:12;;;;;;;2.83;1.40;;;13.20;99.90;;;;;;5018090;28;20440;-69
2023/09/24 07:43:39;;;;;;;2.33;1.50;;;13.20;99.90;;;;;;5017974;28;20554;-69
2023/09/24 07:46:06;;;;;;;1.27;1.17;;;13.30;99.90;;;;;;5017882;28;20088;-69
2023/09/24 07:48:32;;;;;;;1.25;1.13;;;13.40;99.90;;;;;;5017867;28;20075;-70
2023/09/24 07:50:58;;;;;;;0.90;0.80;;;13.40;99.90;;;;;;5018185;28;20167;-62
2023/09/24 07:53:24;;;;;;;2.03;1.30;;;13.50;99.90;;;;;;5035931;28;20045;-69
2023/09/24 07:56:07;;;;;;;1.55;1.42;;;13.50;99.90;;;;;;5017732;28;20045;-71
2023/09/24 07:58:33;;;;;;;2.05;1.55;;;13.50;99.90;;;;;;5035749;28;20042;-67
2023/09/24 08:01:26;;;;;;;1.75;1.15;;;13.60;99.90;;;;;;5017504;28;20052;-66
2023/09/24 08:03:52;;;;;;;1.40;1.02;;;13.70;99.90;;;;;;5033809;28;20413;-67
2023/09/24 08:06:18;;;;;;;1.10;1.00;;;13.70;99.90;;;;;;5035581;28;20049;-67
2023/09/24 08:08:43;;;;;;;1.45;0.95;;;13.80;99.90;;;;;;5035287;28;20501;-66
2023/09/24 08:11:09;;;;;;;1.75;1.35;;;13.90;99.90;;;;;;5017460;28;20045;-68
2023/09/24 08:13:35;;;;;;;1.23;0.85;;;13.80;99.90;;;;;;5017515;28;20124;-68
2023/09/24 08:16:00;;;;;;;1.20;1.10;;;13.90;99.90;;;;;;5035129;28;20073;-68
2023/09/24 08:18:26;;;;;;;1.98;0.98;;;13.90;99.90;;;;;;5035317;28;20061;-68
2023/09/24 08:20:55;;;;;;;1.25;0.75;;;14.00;99.90;;;;;;5035360;28;20056;-68
2023/09/24 08:23:21;;;;;;;1.00;0.90;;;14.00;99.90;;;;;;5035302;28;20478;-69
2023/09/24 08:25:51;;;;;;;1.35;1.17;;;14.10;99.90;;;;;;5035242;28;20029;-69
2023/09/24 08:28:17;;;;;;;1.27;1.15;;;14.10;99.90;;;;;;5017102;28;20049;-69
2023/09/24 08:30:43;;;;;;;1.13;1.02;;;14.20;99.90;;;;;;5017118;28;20049;-70
2023/09/24 08:33:09;;;;;;;1.63;1.23;;;14.20;99.90;;;;;;5034773;28;20539;-69
2023/09/24 08:35:36;;;;;;;1.67;1.08;;;14.30;99.90;;;;;;5034952;28;20135;-70
2023/09/24 08:38:02;;;;;;;1.77;1.38;;;14.40;99.90;;;;;;5017030;28;20061;-70
2023/09/24 08:40:31;;;;;;;1.15;1.00;;;14.40;99.90;;;;;;5034971;28;20041;-68
2023/09/24 08:42:58;;;;;;;1.20;1.10;;;14.40;99.90;;;;;;5034824;28;20041;-70
2023/09/24 08:45:26;;;;;;;0.85;0.80;;;14.50;99.90;;;;;;5034958;28;20147;-69
2023/09/24 08:47:52;;;;;;;0.95;0.90;;;14.50;99.90;;;;;;5017124;28;20094;-68
2023/09/24 08:50:18;;;;;;;1.27;1.17;;;14.50;99.90;;;;;;5034791;28;20040;-68
2023/09/24 08:52:45;;;;;;;2.20;1.10;;;14.50;99.90;;;;;;5017074;28;20167;-64
2023/09/24 08:55:12;;;;;;;1.67;1.20;;;14.50;99.90;;;;;;5034681;28;20037;-67
2023/09/24 08:57:39;;;;;;;1.95;1.42;;;14.50;99.90;;;;;;5034642;28;20042;-65
2023/09/24 09:00:06;;;;;;;1.60;1.20;;;14.60;99.90;;;;;;5034617;28;20554;-65
2023/09/24 09:02:32;;;;;;;0.80;0.77;;;14.60;99.90;;;;;;5034825;28;20045;-63
2023/09/24 09:04:58;;;;;;;1.23;0.90;;;14.60;99.90;;;;;;5034542;28;20040;-64
2023/09/24 09:07:24;;;;;;;1.48;0.80;;;14.60;99.90;;;;;;5016472;28;20503;-64
2023/09/24 09:09:59;;;;;;;1.90;1.20;;;14.60;99.90;;;;;;5034489;28;20040;-63
2023/09/24 09:12:26;;;;;;;1.25;0.98;;;14.70;99.90;;;;;;5015987;28;20456;-64
2023/09/24 09:14:52;;;;;;;1.50;1.10;;;14.70;99.90;;;;;;5033916;28;20099;-64
2023/09/24 09:17:18;;;;;;;1.35;0.90;;;14.70;99.90;;;;;;5033965;28;20589;-63
2023/09/24 09:19:52;;;;;;;0.93;0.70;;;14.80;99.90;;;;;;5034424;28;20048;-63
2023/09/24 09:22:22;;;;;;;2.00;1.08;;;14.70;99.90;;;;;;5034272;28;20049;-64
2023/09/24 09:25:09;;;;;;;1.10;0.80;;;14.80;99.90;;;;;;5034219;28;20033;-63
2023/09/24 09:27:37;;;;;;;1.20;0.90;;;14.80;99.90;;;;;;5015768;28;20236;-62
2023/09/24 09:30:15;;;;;;;0.98;0.70;;;14.90;99.90;;;;;;5034143;28;20088;-63
2023/09/24 09:32:42;;;;;;;1.00;0.90;;;14.90;99.90;;;;;;5016283;28;20494;-62
2023/09/24 09:35:08;;;;;;;0.85;0.77;;;15.10;99.90;;;;;;5034049;28;20116;-63
2023/09/24 09:37:33;;;;;;;1.13;0.95;;;15.10;99.90;;;;;;5033863;28;20208;-63
2023/09/24 09:39:59;;;;;;;1.10;1.00;;;15.10;99.90;;;;;;5033721;28;20038;-62
2023/09/24 09:42:25;;;;;;;1.40;0.70;;;15.20;99.90;;;;;;5033873;28;20037;-63
2023/09/24 09:44:54;;;;;;;0.68;0.63;;;15.30;99.90;;;;;;5033482;28;20094;-62
2023/09/24 09:47:24;;;;;;;0.80;0.60;;;15.50;99.90;;;;;;5033462;28;20052;-63
2023/09/24 09:50:00;;;;;;;1.52;0.80;;;15.50;99.90;;;;;;5033712;28;20076;-64
2023/09/24 09:52:43;;;;;;;1.17;0.60;;;15.50;99.90;;;;;;5033677;28;20425;-64
2023/09/24 09:55:09;;;;;;;0.80;0.70;;;15.60;99.90;;;;;;5033610;28;20048;-64
2023/09/24 09:57:35;;;;;;;1.38;0.88;;;15.70;99.90;;;;;;5033487;28;20462;-63
2023/09/24 10:00:10;;;;;;;0.95;0.80;;;15.70;99.90;;;;;;5033493;28;20069;-64
2023/09/24 10:02:39;;;;;;;1.50;0.85;;;15.80;99.90;;;;;;5033073;28;20052;-65
2023/09/24 10:05:06;;;;;;;1.30;1.05;;;15.90;99.90;;;;;;5033178;28;20473;-66
2023/09/24 10:07:38;;;;;;;1.52;0.90;;;16.00;94.40;;;;;;5015361;28;20124;-65
2023/09/24 10:10:32;;;;;;;0.73;0.63;;;16.10;97.50;;;;;;5033333;28;20041;-66
2023/09/24 10:12:59;;;;;;;0.68;0.57;;;16.20;95.70;;;;;;5033055;28;20045;-66
2023/09/24 10:15:31;;;;;;;0.85;0.80;;;16.30;98.20;;;;;;5015361;28;20473;-72
2023/09/24 10:18:09;;;;;;;1.60;0.90;;;16.40;94.80;;;;;;5015103;28;20057;-67
2023/09/24 10:20:50;;;;;;;0.85;0.50;;;16.40;93.70;;;;;;5015478;28;20053;-68
2023/09/24 10:23:31;;;;;;;;;;;16.50;91.90;;;;;;5032401;28;20128;-68
2023/09/24 10:25:59;;;;;;;;;;;16.60;83.40;;;;;;5033318;28;19925;-67
2023/09/24 10:28:48;;;;;;;0.70;0.70;;;16.60;84.60;;;;;;5033201;28;20296;-67
2023/09/24 10:31:16;;;;;;;1.33;0.63;;;16.60;88.70;;;;;;5015369;28;20052;-68
2023/09/24 10:34:02;;;;;;;0.80;0.60;;;16.70;93.40;;;;;;5032704;28;20045;-66
2023/09/24 10:36:33;;;;;;;0.80;0.80;;;16.70;86.80;;;;;;5032679;28;20046;-68
2023/09/24 10:39:10;;;;;;;1.23;0.90;;;16.70;90.60;;;;;;5033044;28;20038;-67
2023/09/24 10:41:56;;;;;;;1.00;0.70;;;16.70;83.10;;;;;;5015188;28;20451;-66
2023/09/24 10:44:25;;;;;;;0.80;0.60;;;17.00;81.30;;;;;;5032708;28;20119;-66
2023/09/24 10:46:52;;;;;;;1.00;0.65;;;16.70;81.80;;;;;;5032748;28;20044;-67
2023/09/24 10:49:24;;;;;;;0.75;0.73;;;16.70;83.80;;;;;;5032619;28;20038;-66
2023/09/24 10:52:01;;;;;;;1.08;0.60;;;16.70;80.60;;;;;;5014953;28;20452;-65
2023/09/24 10:54:27;;;;;;;0.55;0.55;;;16.80;87.20;;;;;;5032656;28;20048;-66
2023/09/24 10:56:53;;;;;;;1.63;0.90;;;16.90;82.80;;;;;;5014855;28;20041;-68
2023/09/24 10:59:34;;;;;;;1.83;0.90;;;17.00;80.40;;;;;;5014863;28;20042;-66
2023/09/24 11:02:15;;;;;;;1.20;0.85;;;17.00;64.40;;;;;;5015152;28;20045;-66
2023/09/24 11:04:41;;;;;;;0.68;0.63;;;17.00;45.20;;;;;;5015158;28;20552;-67
2023/09/24 11:07:11;;;;;;;0.90;0.65;;;17.10;75.90;;;;;;5032825;28;20050;-65
2023/09/24 11:09:37;;;;;;;0.50;0.50;;;17.10;67.70;;;;;;5032864;28;20055;-66
2023/09/24 11:12:08;;;;;;;0.90;0.60;;;17.10;66.10;;;;;;5032675;28;20112;-66
2023/09/24 11:14:34;;;;;;;1.05;0.82;;;17.20;71.00;;;;;;5032838;28;20046;-64
2023/09/24 11:17:00;;;;;;;1.20;0.70;;;17.20;73.80;;;;;;5032342;28;20116;-65
2023/09/24 11:19:45;;;;;;;1.48;0.90;;;17.20;63.00;;;;;;5032773;28;20452;-64
2023/09/24 11:22:22;;;;;;;0.88;0.80;;;17.60;46.90;;;;;;5032871;28;20532;-71
2023/09/24 11:25:07;;;;;;;0.80;0.80;;;17.30;59.50;;;;;;5015771;28;20045;-72
2023/09/24 11:27:47;;;;;;;0.77;0.70;;;17.30;10.70;;;;;;5015074;28;20042;-73
2023/09/24 11:30:18;;;;;;;0.70;0.70;;;17.30;54.10;;;;;;5032831;28;20719;-72
2023/09/24 11:32:48;;;;;;;1.10;0.70;;;17.40;63.00;;;;;;5032457;28;20116;-66
2023/09/24 11:35:19;;;;;;;0.50;0.50;;;17.50;57.90;;;;;;5034800;28;20095;-68
2023/09/24 11:38:01;;;;;;;0.95;0.73;;;17.50;49.70;;;;;;5036159;28;20397;-66
2023/09/24 11:40:35;;;;;;;0.70;0.60;;;17.60;36.90;;;;;;5035869;28;20033;-66
2023/09/24 11:43:02;;;;;;;0.90;0.80;;;17.60;47.30;;;;;;5018180;28;20044;-66
2023/09/24 11:45:42;;;;;;;0.50;0.43;;;17.60;37.80;;;;;;5035785;28;20033;-67
2023/09/24 11:48:13;;;;;;;0.50;0.50;;;17.70;32.30;;;;;;5018382;28;20079;-67
2023/09/24 11:50:41;;;;;;;0.70;0.70;;;17.80;39.40;;;;;;5036012;28;20044;-67
2023/09/24 11:53:07;;;;;;;0.82;0.70;;;17.90;46.20;;;;;;5035944;28;20049;-66
2023/09/24 11:55:34;;;;;;;1.65;0.85;;;18.00;41.90;;;;;;5035836;28;20038;-67
2023/09/24 11:57:59;;;;;;;0.93;0.80;;;18.00;36.60;;;;;;5035851;28;20044;-65
2023/09/24 12:00:25;;;;;;;0.60;0.60;;;18.10;18.20;;;;;;5035867;28;20115;-66
2023/09/24 12:02:51;;;;;;;0.65;0.57;;;18.00;27.60;;;;;;5035769;28;20067;-67
2023/09/24 12:05:16;;;;;;;0.60;0.60;;;18.10;16.50;;;;;;5035396;28;20056;-67
2023/09/24 12:07:42;;;;;;;0.70;0.50;;;18.10;23.60;;;;;;5035679;28;20082;-67
2023/09/24 12:10:08;;;;;;;0.73;0.60;;;18.20;1.00;;;;;;5035614;28;20112;-67
2023/09/24 12:12:34;;;;;;;1.00;0.77;;;18.10;1.00;;;;;;5035285;28;20048;-66
2023/09/24 12:15:00;;;;;;;0.65;0.50;;;18.60;96.40;;;;;;5017821;28;20045;-64
2023/09/24 12:17:25;;;;;;;1.58;0.82;;;18.30;99.90;;;;;;5035112;28;20128;-64
2023/09/24 12:19:52;;;;;;;0.70;0.70;;;18.40;1.00;;;;;;5017786;28;20048;-66
2023/09/24 12:22:19;;;;;;;0.50;0.50;;;18.40;99.90;;;;;;5035118;28;20045;-67
2023/09/24 12:24:44;;;;;;;0.70;0.70;;;18.40;99.90;;;;;;5035202;28;20052;-66
2023/09/24 12:27:11;;;;;;;0.70;0.70;;;18.30;25.30;;;;;;5035042;28;20513;-68
2023/09/24 12:29:36;;;;;;;0.80;0.80;;;18.30;99.90;;;;;;5035314;28;20440;-66
2023/09/24 12:32:02;;;;;;;1.38;0.93;;;18.40;99.90;;;;;;5035071;28;20041;-65
2023/09/24 12:34:27;;;;;;;0.65;0.65;;;18.40;1.00;;;;;;5034884;28;20455;-64
2023/09/24 12:36:54;;;;;;;0.60;0.60;;;18.50;99.90;;;;;;5034908;28;20041;-63
2023/09/24 12:39:19;;;;;;;0.80;0.80;;;18.40;1.00;;;;;;5035076;28;20482;-64
2023/09/24 12:41:46;;;;;;;0.90;0.85;;;18.40;80.80;;;;;;5017351;28;20053;-66
2023/09/24 12:44:12;;;;;;;0.52;0.52;;;18.40;80.60;;;;;;5035077;28;20037;-66
2023/09/24 12:46:38;;;;;;;0.73;0.70;;;18.40;1.00;;;;;;5034057;28;20037;-66
2023/09/24 12:49:03;;;;;;;1.10;0.70;;;18.40;99.90;;;;;;5034926;28;20504;-66
2023/09/24 12:51:29;;;;;;;0.88;0.82;;;18.40;99.90;;;;;;5034912;28;20508;-66
2023/09/24 12:53:55;;;;;;;0.77;0.77;;;18.40;99.90;;;;;;5034791;28;20037;-66